createdAt,value
2019-04-07T00:01:48.548Z,56.90
2019-04-07T00:04:17.934Z,56.82
2019-04-07T00:06:47.695Z,56.79
2019-04-07T00:09:17.600Z,56.66
2019-04-07T00:11:46.999Z,56.73
2019-04-07T00:14:16.729Z,56.89
2019-04-07T00:16:46.005Z,57.00
2019-04-07T00:19:15.663Z,56.81
2019-04-07T00:21:45.555Z,56.83
2019-04-07T00:24:14.990Z,56.81
2019-04-07T00:26:44.831Z,56.61
2019-04-07T00:29:14.450Z,56.68
2019-04-07T00:31:43.885Z,56.58
2019-04-07T00:34:13.157Z,56.73
2019-04-07T00:36:42.409Z,56.80
2019-04-07T00:39:11.773Z,56.80
2019-04-07T00:41:41.012Z,56.50
2019-04-07T00:44:10.286Z,56.66
2019-04-07T00:46:39.817Z,56.61
2019-04-07T00:49:09.498Z,56.68
2019-04-07T00:51:39.037Z,56.80
2019-04-07T00:54:08.447Z,56.67
2019-04-07T00:56:37.650Z,56.68
2019-04-07T00:59:06.925Z,56.70
2019-04-07T01:01:36.182Z,56.78
2019-04-07T01:04:05.695Z,56.65
2019-04-07T01:06:34.956Z,56.69
2019-04-07T01:09:05.707Z,56.43
2019-04-07T01:11:35.424Z,56.62
2019-04-07T01:14:04.955Z,56.48
2019-04-07T01:16:34.288Z,56.55
2019-04-07T01:19:03.558Z,56.43
2019-04-07T01:21:33.099Z,56.60
2019-04-07T01:24:03.309Z,56.72
2019-04-07T01:26:32.736Z,56.85
2019-04-07T01:29:03.004Z,57.00
2019-04-07T01:31:32.957Z,57.07
2019-04-07T01:34:02.279Z,57.11
2019-04-07T01:36:31.676Z,57.14
2019-04-07T01:39:01.477Z,57.38
2019-04-07T01:41:35.893Z,57.54
2019-04-07T01:44:13.633Z,57.30
2019-04-07T01:47:07.866Z,57.50
2019-04-07T01:49:56.606Z,57.68
2019-04-07T01:52:33.878Z,57.63
2019-04-07T01:55:23.555Z,57.72
2019-04-07T01:58:07.330Z,57.83
2019-04-07T02:01:07.666Z,58.07
2019-04-07T02:03:53.581Z,58.27
2019-04-07T02:06:50.896Z,58.33
2019-04-07T02:09:39.310Z,58.35
2019-04-07T02:12:27.489Z,58.42
2019-04-07T02:15:21.755Z,58.36
2019-04-07T02:18:04.300Z,58.52
2019-04-07T02:21:03.265Z,58.58
2019-04-07T02:24:00.778Z,58.93
2019-04-07T02:26:54.503Z,58.86
2019-04-07T02:29:41.484Z,58.76
2019-04-07T02:32:32.740Z,58.84
2019-04-07T02:35:09.738Z,58.70
2019-04-07T02:38:02.197Z,58.69
2019-04-07T02:40:53.489Z,58.64
2019-04-07T02:43:44.768Z,58.54
2019-04-07T02:46:38.268Z,58.61
2019-04-07T02:49:30.234Z,58.45
2019-04-07T02:52:13.052Z,58.57
2019-04-07T02:54:53.545Z,58.56
2019-04-07T02:57:42.167Z,58.40
2019-04-07T03:00:23.095Z,58.75
2019-04-07T03:03:11.274Z,58.89
2019-04-07T03:05:56.964Z,59.02
2019-04-07T03:08:41.414Z,59.38
2019-04-07T03:11:32.631Z,59.37
2019-04-07T03:14:15.055Z,59.64
2019-04-07T03:16:51.785Z,59.89
2019-04-07T03:19:31.839Z,60.14
2019-04-07T03:22:35.410Z,60.33
2019-04-07T03:25:24.376Z,60.49
2019-04-07T03:28:12.740Z,60.89
2019-04-07T03:31:10.722Z,60.99
2019-04-07T03:34:03.039Z,61.12
2019-04-07T03:37:13.104Z,61.22
2019-04-07T03:39:22.279Z,61.42
2019-04-07T03:42:16.397Z,61.18
2019-04-07T03:45:08.200Z,61.48
2019-04-07T03:47:50.973Z,61.37
2019-04-07T03:50:32.276Z,61.29
2019-04-07T03:53:39.322Z,61.60
2019-04-07T03:56:21.978Z,62.02
2019-04-07T03:59:01.447Z,62.19
2019-04-07T04:02:08.125Z,62.66
2019-04-07T04:04:45.877Z,62.84
2019-04-07T04:07:31.476Z,63.06
2019-04-07T04:10:26.991Z,63.01
2019-04-07T04:13:01.917Z,63.07
2019-04-07T04:15:34.533Z,63.31
2019-04-07T04:18:03.787Z,63.20
2019-04-07T04:20:33.052Z,63.53
2019-04-07T04:23:02.354Z,63.62
2019-04-07T04:25:32.208Z,63.36
2019-04-07T04:28:01.664Z,63.48
2019-04-07T04:30:31.901Z,63.48
2019-04-07T04:33:02.088Z,63.48
2019-04-07T04:35:32.371Z,63.41
2019-04-07T04:38:02.035Z,63.38
2019-04-07T04:40:32.302Z,63.59
2019-04-07T04:43:02.712Z,63.81
2019-04-07T04:45:32.263Z,63.88
2019-04-07T04:48:02.768Z,63.48
2019-04-07T04:50:32.049Z,63.61
2019-04-07T04:53:02.059Z,63.46
2019-04-07T04:55:31.865Z,63.74
2019-04-07T04:58:02.134Z,63.65
2019-04-07T05:00:32.144Z,63.50
2019-04-07T05:03:01.411Z,63.44
2019-04-07T05:05:30.663Z,63.46
2019-04-07T05:08:03.622Z,63.54
2019-04-07T05:10:31.032Z,63.70
2019-04-07T05:13:00.445Z,63.64
2019-04-07T05:15:29.779Z,63.16
2019-04-07T05:17:59.065Z,63.23
2019-04-07T05:20:28.528Z,63.19
2019-04-07T05:22:58.589Z,63.14
2019-04-07T05:25:28.349Z,62.98
2019-04-07T05:27:57.942Z,66.01
2019-04-07T05:30:28.224Z,68.39
2019-04-07T05:32:57.528Z,69.98
2019-04-07T05:35:27.496Z,71.42
2019-04-07T05:38:02.833Z,71.15
2019-04-07T05:40:27.935Z,70.52
2019-04-07T05:42:57.233Z,69.80
2019-04-07T05:45:27.042Z,68.84
2019-04-07T05:47:56.424Z,67.77
2019-04-07T05:50:27.478Z,67.19
2019-04-07T05:52:56.720Z,69.05
2019-04-07T05:55:25.949Z,69.59
2019-04-07T05:57:55.194Z,70.61
2019-04-07T06:00:25.092Z,70.29
2019-04-07T06:02:54.484Z,70.60
2019-04-07T06:05:24.458Z,70.56
2019-04-07T06:07:53.883Z,69.56
2019-04-07T06:10:27.628Z,68.69
2019-04-07T06:12:54.197Z,68.18
2019-04-07T06:15:23.495Z,67.19
2019-04-07T06:17:55.510Z,66.18
2019-04-07T06:20:23.706Z,65.54
2019-04-07T06:22:54.447Z,65.50
2019-04-07T06:25:24.993Z,64.89
2019-04-07T06:27:54.416Z,64.57
2019-04-07T06:30:24.088Z,62.65
2019-04-07T06:32:53.826Z,60.77
2019-04-07T06:35:23.473Z,60.45
2019-04-07T06:37:53.116Z,60.25
2019-04-07T06:40:23.134Z,59.61
2019-04-07T06:42:52.411Z,58.40
2019-04-07T06:45:25.678Z,58.26
2019-04-07T06:47:57.311Z,58.01
2019-04-07T06:50:47.562Z,57.64
2019-04-07T06:53:29.054Z,57.21
2019-04-07T06:56:06.887Z,56.40
2019-04-07T06:58:58.144Z,56.03
2019-04-07T07:01:34.954Z,54.83
2019-04-07T07:04:23.453Z,53.31
2019-04-07T07:07:11.680Z,51.29
2019-04-07T07:10:09.541Z,47.30
2019-04-07T07:12:47.643Z,39.85
2019-04-07T07:15:28.356Z,31.97
2019-04-07T07:18:19.952Z,26.66
2019-04-07T07:21:07.355Z,23.58
2019-04-07T07:23:39.737Z,20.85
2019-04-07T07:26:09.808Z,19.09
2019-04-07T07:28:42.958Z,18.14
2019-04-07T07:31:10.243Z,17.37
2019-04-07T07:33:41.605Z,16.03
2019-04-07T07:36:10.779Z,15.98
2019-04-07T07:38:40.551Z,14.45
2019-04-07T07:41:10.916Z,13.97
2019-04-07T07:43:40.377Z,13.64
2019-04-07T07:46:09.648Z,14.02
2019-04-07T07:48:38.979Z,12.83
2019-04-07T07:51:12.927Z,12.29
2019-04-07T07:53:39.427Z,11.43
2019-04-07T07:56:12.124Z,11.54
2019-04-07T07:58:39.785Z,12.14
2019-04-07T08:01:11.290Z,11.87
2019-04-07T08:03:40.507Z,11.49
2019-04-07T08:06:09.842Z,11.54
2019-04-07T08:08:39.660Z,12.07
2019-04-07T08:11:08.982Z,12.33
2019-04-07T08:13:43.395Z,11.84
2019-04-07T08:16:09.783Z,11.47
2019-04-07T08:18:43.539Z,10.93
2019-04-07T08:21:12.488Z,10.44
2019-04-07T08:23:44.895Z,11.31
2019-04-07T08:26:12.549Z,10.97
2019-04-07T08:28:42.759Z,10.93
2019-04-07T08:31:12.131Z,11.14
2019-04-07T08:33:42.098Z,10.77
2019-04-07T08:36:12.966Z,12.32
2019-04-07T08:38:42.628Z,13.28
2019-04-07T08:41:13.377Z,11.80
2019-04-07T08:43:42.844Z,11.89
2019-04-07T08:46:12.149Z,12.86
2019-04-07T08:48:41.466Z,14.71
2019-04-07T08:51:11.254Z,17.19
2019-04-07T08:53:43.556Z,18.94
2019-04-07T08:56:11.944Z,18.81
2019-04-07T08:58:41.454Z,17.12
2019-04-07T09:01:10.721Z,15.40
2019-04-07T09:03:40.071Z,14.61
2019-04-07T09:06:09.710Z,17.54
2019-04-07T09:08:39.876Z,15.70
2019-04-07T09:11:15.777Z,16.29
2019-04-07T09:13:55.926Z,14.37
2019-04-07T09:16:52.717Z,13.09
2019-04-07T09:19:39.770Z,12.24
2019-04-07T09:22:36.408Z,13.90
2019-04-07T09:25:28.763Z,14.56
2019-04-07T09:28:04.578Z,14.94
2019-04-07T09:30:48.723Z,17.04
2019-04-07T09:33:36.962Z,17.97
2019-04-07T09:36:25.392Z,18.15
2019-04-07T09:39:14.422Z,17.03
2019-04-07T09:42:03.130Z,16.82
2019-04-07T09:45:00.477Z,17.16
2019-04-07T09:48:00.880Z,18.05
2019-04-07T09:50:45.987Z,19.43
2019-04-07T09:53:23.776Z,21.65
2019-04-07T09:56:27.262Z,22.52
2019-04-07T09:59:29.688Z,22.66
2019-04-07T10:02:11.447Z,22.58
2019-04-07T10:05:02.491Z,22.81
2019-04-07T10:07:54.370Z,23.99
2019-04-07T10:10:38.319Z,24.96
2019-04-07T10:13:45.306Z,24.22
2019-04-07T10:16:25.837Z,23.79
2019-04-07T10:19:13.099Z,23.25
2019-04-07T10:22:01.662Z,23.56
2019-04-07T10:24:59.089Z,24.06
2019-04-07T10:27:53.253Z,24.92
2019-04-07T10:30:47.349Z,26.64
2019-04-07T10:33:34.366Z,25.50
2019-04-07T10:36:21.627Z,23.73
2019-04-07T10:39:13.044Z,24.20
2019-04-07T10:42:13.777Z,25.21
2019-04-07T10:45:02.197Z,24.55
2019-04-07T10:47:43.699Z,24.34
2019-04-07T10:50:34.649Z,24.07
2019-04-07T10:53:34.237Z,26.22
2019-04-07T10:56:28.855Z,27.28
2019-04-07T10:59:17.888Z,26.23
2019-04-07T11:02:05.854Z,23.93
2019-04-07T11:05:13.019Z,25.60
2019-04-07T11:07:48.341Z,26.74
2019-04-07T11:10:39.138Z,25.53
2019-04-07T11:13:25.071Z,22.81
2019-04-07T11:16:16.104Z,21.83
2019-04-07T11:19:06.026Z,22.27
2019-04-07T11:21:47.898Z,22.55
2019-04-07T11:24:37.107Z,23.10
2019-04-07T11:27:31.271Z,25.70
2019-04-07T11:30:19.509Z,25.64
2019-04-07T11:33:03.570Z,25.48
2019-04-07T11:36:04.116Z,24.71
2019-04-07T11:38:49.412Z,22.62
2019-04-07T11:41:52.787Z,20.81
2019-04-07T11:44:32.269Z,18.38
2019-04-07T11:47:06.774Z,17.34
2019-04-07T11:49:58.267Z,17.06
2019-04-07T11:52:43.927Z,17.82
2019-04-07T11:55:29.169Z,20.85
2019-04-07T11:58:34.634Z,23.03
2019-04-07T12:01:18.853Z,24.36
2019-04-07T12:04:07.890Z,25.65
2019-04-07T12:06:52.621Z,27.20
2019-04-07T12:09:43.699Z,27.75
2019-04-07T12:12:47.330Z,28.22
2019-04-07T12:15:30.530Z,27.92
2019-04-07T12:18:27.875Z,25.89
2019-04-07T12:21:20.052Z,25.51
2019-04-07T12:24:10.597Z,27.78
2019-04-07T12:27:10.855Z,29.21
2019-04-07T12:29:48.550Z,29.51
2019-04-07T12:32:35.935Z,29.50
2019-04-07T12:35:13.394Z,28.95
2019-04-07T12:38:12.229Z,31.47
2019-04-07T12:41:14.428Z,31.98
2019-04-07T12:43:55.218Z,31.74
2019-04-07T12:46:38.683Z,31.60
2019-04-07T12:49:26.046Z,32.24
2019-04-07T12:52:11.757Z,33.46
2019-04-07T12:55:00.427Z,31.04
2019-04-07T12:58:04.799Z,31.19
2019-04-07T13:00:59.913Z,29.93
2019-04-07T13:04:04.657Z,30.21
2019-04-07T13:06:52.297Z,29.20
2019-04-07T13:09:55.699Z,28.71
2019-04-07T13:12:47.938Z,29.18
2019-04-07T13:15:31.433Z,29.10
2019-04-07T13:18:09.699Z,29.55
2019-04-07T13:21:13.436Z,31.36
2019-04-07T13:24:10.038Z,33.21
2019-04-07T13:26:53.945Z,33.21
2019-04-07T13:29:43.286Z,29.18
2019-04-07T13:32:46.845Z,29.61
2019-04-07T13:35:42.507Z,28.04
2019-04-07T13:38:28.269Z,27.96
2019-04-07T13:41:18.586Z,29.04
2019-04-07T13:44:13.036Z,28.81
2019-04-07T13:47:06.226Z,29.11
2019-04-07T13:50:02.791Z,28.69
2019-04-07T13:53:01.508Z,27.46
2019-04-07T13:55:49.899Z,25.92
2019-04-07T13:58:37.953Z,26.65
2019-04-07T14:01:18.502Z,25.91
2019-04-07T14:04:06.860Z,25.21
2019-04-07T14:06:54.414Z,24.11
2019-04-07T14:09:48.602Z,23.22
2019-04-07T14:12:30.982Z,25.33
2019-04-07T14:15:17.705Z,26.10
2019-04-07T14:18:09.011Z,27.07
2019-04-07T14:21:04.057Z,28.12
2019-04-07T14:23:42.271Z,29.78
2019-04-07T14:26:36.598Z,31.05
2019-04-07T14:29:29.003Z,31.55
2019-04-07T14:32:20.879Z,32.52
2019-04-07T14:35:09.384Z,33.59
2019-04-07T14:37:57.198Z,34.12
2019-04-07T14:40:54.896Z,34.28
2019-04-07T14:43:58.299Z,34.96
2019-04-07T14:46:43.775Z,35.22
2019-04-07T14:49:35.737Z,34.71
2019-04-07T14:52:13.375Z,34.76
2019-04-07T14:55:05.017Z,34.58
2019-04-07T14:57:51.329Z,33.92
2019-04-07T15:00:42.834Z,33.92
2019-04-07T15:03:12.177Z,32.82
2019-04-07T15:05:43.690Z,32.67
2019-04-07T15:08:32.915Z,32.56
2019-04-07T15:11:28.076Z,32.39
2019-04-07T15:14:00.375Z,33.21
2019-04-07T15:16:28.615Z,33.58
2019-04-07T15:18:58.710Z,33.54
2019-04-07T15:21:28.083Z,33.43
2019-04-07T15:24:01.878Z,33.43
2019-04-07T15:26:29.260Z,33.27
2019-04-07T15:28:59.411Z,33.30
2019-04-07T15:31:29.598Z,32.79
2019-04-07T15:34:00.831Z,32.78
2019-04-07T15:36:30.070Z,31.87
2019-04-07T15:38:59.629Z,30.91
2019-04-07T15:41:29.540Z,29.71
2019-04-07T15:43:58.949Z,28.95
2019-04-07T15:46:28.976Z,29.06
2019-04-07T15:48:59.419Z,28.65
2019-04-07T15:51:29.454Z,28.86
2019-04-07T15:53:59.427Z,29.36
2019-04-07T15:56:28.685Z,29.46
2019-04-07T15:59:00.715Z,29.46
2019-04-07T16:01:28.927Z,29.83
2019-04-07T16:03:59.103Z,30.46
2019-04-07T16:06:28.656Z,30.08
2019-04-07T16:09:00.220Z,31.20
2019-04-07T16:11:30.485Z,32.47
2019-04-07T16:13:59.865Z,33.28
2019-04-07T16:16:29.538Z,34.88
2019-04-07T16:18:59.362Z,34.88
2019-04-07T16:21:29.782Z,35.16
2019-04-07T16:23:59.482Z,35.86
2019-04-07T16:26:31.129Z,36.12
2019-04-07T16:28:59.895Z,36.70
2019-04-07T16:31:29.863Z,36.89
2019-04-07T16:34:00.206Z,37.54
2019-04-07T16:36:30.237Z,37.40
2019-04-07T16:39:01.914Z,37.76
2019-04-07T16:41:31.577Z,37.98
2019-04-07T16:44:04.210Z,38.69
2019-04-07T16:46:31.957Z,39.06
2019-04-07T16:49:01.822Z,39.47
2019-04-07T16:51:33.633Z,39.83
2019-04-07T16:54:02.734Z,40.32
2019-04-07T16:56:32.329Z,40.91
2019-04-07T16:59:02.636Z,41.34
2019-04-07T17:01:32.350Z,41.68
2019-04-07T17:04:01.620Z,41.89
2019-04-07T17:06:35.305Z,42.27
2019-04-07T17:09:02.492Z,42.59
2019-04-07T17:11:32.311Z,43.18
2019-04-07T17:14:02.921Z,43.26
2019-04-07T17:16:33.457Z,43.97
2019-04-07T17:19:02.840Z,43.57
2019-04-07T17:21:32.897Z,43.94
2019-04-07T17:24:02.342Z,44.19
2019-04-07T17:26:36.098Z,44.49
2019-04-07T17:29:03.217Z,44.59
2019-04-07T17:31:33.496Z,44.48
2019-04-07T17:34:04.942Z,44.63
2019-04-07T17:36:34.350Z,44.61
2019-04-07T17:39:36.898Z,45.02
2019-04-07T17:42:05.935Z,45.37
2019-04-07T17:44:54.306Z,45.62
2019-04-07T17:47:48.703Z,46.29
2019-04-07T17:50:40.128Z,46.30
2019-04-07T17:53:32.668Z,47.00
2019-04-07T17:56:14.747Z,47.51
2019-04-07T17:59:08.685Z,47.34
2019-04-07T18:01:52.400Z,47.59
2019-04-07T18:04:43.848Z,47.94
2019-04-07T18:07:39.483Z,47.96
2019-04-07T18:10:39.542Z,47.99
2019-04-07T18:13:49.932Z,48.43
2019-04-07T18:16:38.585Z,48.82
2019-04-07T18:19:21.375Z,48.91
2019-04-07T18:22:28.585Z,49.24
2019-04-07T18:25:14.167Z,49.78
2019-04-07T18:28:01.116Z,50.35
2019-04-07T18:30:41.885Z,50.30
2019-04-07T18:33:39.018Z,50.62
2019-04-07T18:36:25.732Z,50.89
2019-04-07T18:39:15.953Z,51.26
2019-04-07T18:41:56.092Z,51.65
2019-04-07T18:44:54.214Z,51.77
2019-04-07T18:47:41.593Z,51.84
2019-04-07T18:50:29.125Z,52.22
2019-04-07T18:53:11.948Z,52.20
2019-04-07T18:55:57.932Z,52.57
2019-04-07T18:58:33.194Z,52.83
2019-04-07T19:01:22.277Z,53.03
2019-04-07T19:04:28.145Z,52.92
2019-04-07T19:07:09.806Z,52.88
2019-04-07T19:10:07.887Z,53.42
2019-04-07T19:13:04.988Z,53.73
2019-04-07T19:15:48.993Z,54.02
2019-04-07T19:18:34.970Z,54.02
2019-04-07T19:21:22.538Z,54.35
2019-04-07T19:24:10.698Z,54.41
2019-04-07T19:26:54.433Z,54.75
2019-04-07T19:29:43.473Z,54.86
2019-04-07T19:32:25.067Z,55.20
2019-04-07T19:35:13.326Z,55.46
2019-04-07T19:38:04.785Z,55.42
2019-04-07T19:41:00.412Z,55.33
2019-04-07T19:43:43.714Z,55.58
2019-04-07T19:46:34.148Z,55.97
2019-04-07T19:49:41.029Z,56.14
2019-04-07T19:52:41.585Z,56.33
2019-04-07T19:55:25.862Z,56.69
2019-04-07T19:58:13.992Z,56.88
2019-04-07T20:01:06.253Z,57.01
2019-04-07T20:04:03.592Z,57.43
2019-04-07T20:06:55.448Z,57.60
2019-04-07T20:09:48.339Z,57.65
2019-04-07T20:12:27.220Z,57.68
2019-04-07T20:15:10.301Z,57.96
2019-04-07T20:18:12.448Z,58.10
2019-04-07T20:20:58.201Z,58.33
2019-04-07T20:23:45.336Z,59.17
2019-04-07T20:26:34.783Z,59.51
2019-04-07T20:29:34.150Z,59.77
2019-04-07T20:32:23.349Z,59.88
2019-04-07T20:35:11.543Z,60.18
2019-04-07T20:38:01.938Z,60.52
2019-04-07T20:40:47.866Z,60.45
2019-04-07T20:43:25.916Z,60.34
2019-04-07T20:46:14.175Z,60.34
2019-04-07T20:49:11.657Z,60.38
2019-04-07T20:52:02.665Z,60.69
2019-04-07T20:54:44.392Z,61.22
2019-04-07T20:57:27.313Z,61.41
2019-04-07T21:00:16.595Z,61.52
2019-04-07T21:03:14.382Z,61.60
2019-04-07T21:05:46.232Z,61.52
2019-04-07T21:08:23.326Z,61.66
2019-04-07T21:11:15.210Z,61.96
2019-04-07T21:14:18.705Z,61.75
2019-04-07T21:16:59.338Z,62.20
2019-04-07T21:19:54.339Z,62.30
2019-04-07T21:22:36.971Z,62.14
2019-04-07T21:25:31.879Z,62.32
2019-04-07T21:28:11.545Z,62.17
2019-04-07T21:31:05.653Z,62.28
2019-04-07T21:34:12.346Z,62.06
2019-04-07T21:37:00.688Z,62.13
2019-04-07T21:40:06.988Z,62.16
2019-04-07T21:42:54.513Z,62.21
2019-04-07T21:45:47.160Z,62.40
2019-04-07T21:48:32.000Z,62.77
2019-04-07T21:51:10.697Z,64.93
2019-04-07T21:53:51.861Z,66.17
2019-04-07T21:56:43.098Z,66.12
2019-04-07T21:59:33.614Z,65.66
2019-04-07T22:02:14.233Z,66.25
2019-04-07T22:04:50.679Z,67.42
2019-04-07T22:07:33.630Z,68.62
2019-04-07T22:10:05.280Z,68.92
2019-04-07T22:12:34.649Z,69.67
2019-04-07T22:15:05.129Z,69.55
2019-04-07T22:17:37.199Z,68.83
2019-04-07T22:20:06.236Z,68.29
2019-04-07T22:22:35.509Z,67.91
2019-04-07T22:25:07.053Z,67.41
2019-04-07T22:27:36.042Z,66.68
2019-04-07T22:30:09.189Z,66.47
2019-04-07T22:32:38.521Z,66.39
2019-04-07T22:35:08.477Z,66.14
2019-04-07T22:37:37.789Z,66.09
2019-04-07T22:40:13.608Z,65.99
2019-04-07T22:42:45.476Z,66.18
2019-04-07T22:45:14.930Z,66.18
2019-04-07T22:47:44.551Z,66.17
2019-04-07T22:50:13.874Z,66.37
2019-04-07T22:52:47.354Z,66.00
2019-04-07T22:55:14.368Z,65.82
2019-04-07T22:57:44.156Z,65.85
2019-04-07T23:00:21.307Z,65.97
2019-04-07T23:02:50.675Z,66.18
2019-04-07T23:05:19.936Z,66.03
2019-04-07T23:07:50.084Z,65.81
2019-04-07T23:10:19.814Z,65.94
2019-04-07T23:12:49.863Z,66.22
2019-04-07T23:15:19.185Z,67.24
2019-04-07T23:17:49.167Z,68.52
2019-04-07T23:20:19.884Z,70.02
2019-04-07T23:22:49.968Z,71.85
2019-04-07T23:25:19.987Z,72.61
2019-04-07T23:27:50.488Z,74.47
2019-04-07T23:30:23.925Z,74.16
2019-04-07T23:32:53.510Z,74.28
2019-04-07T23:35:22.899Z,73.88
2019-04-07T23:37:52.153Z,73.33
2019-04-07T23:40:21.384Z,72.63
2019-04-07T23:42:50.935Z,72.22
2019-04-07T23:45:20.364Z,71.76
2019-04-07T23:47:50.421Z,71.90
2019-04-07T23:50:19.738Z,71.55
2019-04-07T23:52:49.763Z,71.36
2019-04-07T23:55:20.383Z,71.16
2019-04-07T23:57:49.646Z,71.20
